Información del aeropuerto MUCC

Información de pista
Pista 08 Longitud 9842 ft Anchura 148 ft
Elevación 10 ft Umbral 0 ft Rumbo 71
Pista 26 Longitud 9842 ft Anchura 148 ft
Elevación 13 ft Umbral 0 ft Rumbo 251
Frecuencias del aeropuerto
Tipo A/G Nombre RDO Frecuencia 340.7 MHZ
Tipo TWR Nombre APP/TWR Frecuencia 118.8 MHZ
Radioayudas del aeropuerto
Tipo NDB Nombre Jardines Del Rey Frecuencia 382 KHZ
Tipo VOR-DME Nombre Jardines Del Rey Frecuencia 117800 KHZ
Información meteorológica del aeropuerto y NOTAM
ADDS - METARS form results

(0157 UTC 23 January 2022)
Data provider http://aviationweather.gov/metar/data/
 
Forecast for: MUCC (CANAGUA , CU)
Text: MUCC 222300Z 2300/2324 03008KT 9000 SCT020
Forecast period: 0000 UTC 23 January 2022 to 0000 UTC 24 January 2022
Forecast type: FROM: standard forecast or significant change
Winds: from the NNE (30 degrees) at 9 MPH (8 knots; 4.1 m/s)
Visibility: 6 miles (9 km)
Ceiling: at least 12,000 feet AGL
Clouds: scattered clouds at 2000 feet AGL
Weather: no significant weather forecast for this period